Time;durP1;ratioP1;P1;durP2;ratioP2;P2;SDS_P1;SDS_P2;PMS_P1;PMS_P2;Temp;Humidity;BMP_temperature;BMP_pressure;BME280_temperature;BME280_humidity;BME280_pressure;Samples;Min_cycle;Max_cycle;Signal;HPM_P1;HPM_P2
2022/09/29 00:01:52;;;;;;;10.02;4.50;;;7.70;40.30;;;;;;7362453;19;20019;-70
2022/09/29 00:04:22;;;;;;;7.68;4.95;;;7.70;40.30;;;;;;7361277;19;20082;-70
2022/09/29 00:06:52;;;;;;;8.55;4.90;;;7.70;40.20;;;;;;7363374;19;20352;-70
2022/09/29 00:09:22;;;;;;;7.85;5.03;;;7.80;40.40;;;;;;7391804;19;20031;-70
2022/09/29 00:11:55;;;;;;;8.43;5.20;;;7.90;40.50;;;;;;7389960;19;20022;-70
2022/09/29 00:14:26;;;;;;;9.75;4.72;;;7.90;40.40;;;;;;7390344;19;20025;-70
2022/09/29 00:16:56;;;;;;;9.35;4.75;;;7.90;40.40;;;;;;7392318;19;20025;-70
2022/09/29 00:19:27;;;;;;;12.00;5.65;;;8.00;40.40;;;;;;7388605;19;20013;-70
2022/09/29 00:21:57;;;;;;;8.95;4.68;;;8.10;39.00;;;;;;7389553;19;20491;-70
2022/09/29 00:24:27;;;;;;;7.88;5.20;;;8.10;38.50;;;;;;7387972;19;20518;-70
2022/09/29 00:26:59;;;;;;;8.15;4.75;;;8.20;38.00;;;;;;7387190;19;20018;-70
2022/09/29 00:29:29;;;;;;;8.52;4.88;;;8.20;37.20;;;;;;7389062;19;20018;-70
2022/09/29 00:31:59;;;;;;;9.45;4.70;;;8.30;36.60;;;;;;7389179;19;20034;-70
2022/09/29 00:34:29;;;;;;;7.75;5.03;;;8.20;36.50;;;;;;7389032;19;20014;-70
2022/09/29 00:36:59;;;;;;;9.75;5.47;;;8.20;35.80;;;;;;7386683;19;20014;-70
2022/09/29 00:39:28;;;;;;;7.93;4.95;;;8.20;35.80;;;;;;7388085;19;20014;-70
2022/09/29 00:42:01;;;;;;;5.95;4.50;;;8.20;35.80;;;;;;7388781;19;20030;-70
2022/09/29 00:44:56;;;;;;;8.95;5.18;;;8.20;35.30;;;;;;7388103;19;20007;-70
2022/09/29 00:47:26;;;;;;;;;;;8.20;35.80;;;;;;7386273;19;20302;-70
2022/09/29 00:50:01;;;;;;;6.35;5.03;;;8.10;36.10;;;;;;7391614;19;19930;-70
2022/09/29 00:52:33;;;;;;;;;;;8.10;36.50;;;;;;7396920;19;20014;-70
2022/09/29 00:55:07;;;;;;;8.55;5.47;;;8.10;36.50;;;;;;7394172;19;19926;-69
2022/09/29 00:57:45;;;;;;;8.52;5.47;;;8.10;36.40;;;;;;7392536;19;20529;-69
2022/09/29 01:00:16;;;;;;;7.30;5.05;;;8.20;36.00;;;;;;7395373;19;20014;-70
2022/09/29 01:02:52;;;;;;;8.98;4.72;;;8.10;36.30;;;;;;7395919;19;20015;-70
2022/09/29 01:05:25;;;;;;;7.40;4.82;;;8.10;36.40;;;;;;7393493;19;20026;-70
2022/09/29 01:07:56;;;;;;;10.48;5.28;;;8.00;36.40;;;;;;7390981;19;20015;-70
2022/09/29 01:10:26;;;;;;;12.20;5.53;;;8.00;37.10;;;;;;7395401;19;20021;-69
2022/09/29 01:12:58;;;;;;;10.38;5.82;;;8.00;37.60;;;;;;7395713;19;20025;-69
2022/09/29 01:15:29;;;;;;;10.45;6.57;;;7.90;38.10;;;;;;7396826;19;20106;-71
2022/09/29 01:17:59;;;;;;;9.07;5.78;;;7.90;38.30;;;;;;7392202;19;20029;-70
2022/09/29 01:20:36;;;;;;;11.18;6.00;;;7.90;39.10;;;;;;7394721;19;20010;-70
2022/09/29 01:23:36;;;;;;;11.55;6.05;;;7.80;39.20;;;;;;7395452;19;20010;-70
2022/09/29 01:26:37;;;;;;;20.88;6.55;;;7.90;39.60;;;;;;7394171;19;20019;-71
2022/09/29 01:29:45;;;;;;;8.63;6.63;;;7.90;40.10;;;;;;7394906;19;20014;-71
2022/09/29 01:32:25;;;;;;;10.68;6.40;;;7.90;40.00;;;;;;7395430;19;20021;-69
2022/09/29 01:35:03;;;;;;;8.93;6.55;;;7.90;40.10;;;;;;7394761;19;20018;-70
2022/09/29 01:37:45;;;;;;;11.75;7.00;;;8.00;40.40;;;;;;7391388;19;20569;-70
2022/09/29 01:40:17;;;;;;;9.95;5.70;;;8.00;39.50;;;;;;7394318;19;20018;-71
2022/09/29 01:42:56;;;;;;;9.13;5.90;;;8.00;39.40;;;;;;7394781;19;20015;-70
2022/09/29 01:45:31;;;;;;;9.10;6.40;;;8.10;39.50;;;;;;7392912;19;20478;-70
2022/09/29 01:48:08;;;;;;;12.00;5.90;;;8.10;39.20;;;;;;7392992;19;20395;-70
2022/09/29 01:50:41;;;;;;;12.32;6.32;;;8.00;38.60;;;;;;7397187;19;20020;-70
2022/09/29 01:53:16;;;;;;;7.63;5.70;;;8.10;38.70;;;;;;7394629;19;20376;-70
2022/09/29 01:55:51;;;;;;;11.15;6.28;;;8.10;38.80;;;;;;7393383;19;20024;-70
2022/09/29 01:58:24;;;;;;;11.52;6.45;;;8.10;38.80;;;;;;7393895;19;20360;-70
2022/09/29 02:00:58;;;;;;;9.33;6.90;;;8.20;38.70;;;;;;7394032;19;20018;-70
2022/09/29 02:03:36;;;;;;;11.40;6.07;;;8.20;38.10;;;;;;7391937;19;20014;-70
2022/09/29 02:06:12;;;;;;;9.45;5.90;;;8.20;38.00;;;;;;7391397;19;20399;-72
2022/09/29 02:08:44;;;;;;;8.38;5.35;;;8.20;38.00;;;;;;7392806;19;20026;-69
2022/09/29 02:11:15;;;;;;;12.13;6.25;;;8.20;36.80;;;;;;7391320;19;20014;-70
2022/09/29 02:13:51;;;;;;;11.65;6.25;;;8.30;36.80;;;;;;7394163;19;20014;-69
2022/09/29 02:16:24;;;;;;;9.40;6.30;;;8.30;36.00;;;;;;7395813;19;20518;-70
2022/09/29 02:19:02;;;;;;;8.82;5.57;;;8.30;36.60;;;;;;7391543;19;20018;-69
2022/09/29 02:21:33;;;;;;;7.78;5.57;;;8.30;36.50;;;;;;7366772;19;20020;-69
2022/09/29 02:24:03;;;;;;;9.18;5.30;;;8.30;36.40;;;;;;7351762;19;20014;-70
2022/09/29 02:26:35;;;;;;;9.05;5.93;;;8.40;36.70;;;;;;7360914;19;20018;-69
2022/09/29 02:29:06;;;;;;;9.35;6.25;;;8.30;36.80;;;;;;7387223;19;20108;-70
2022/09/29 02:31:37;;;;;;;9.68;6.05;;;8.40;37.10;;;;;;7365002;19;20018;-70
2022/09/29 02:34:13;;;;;;;13.27;6.25;;;8.40;37.00;;;;;;7365781;19;20010;-70
2022/09/29 02:36:52;;;;;;;7.57;5.53;;;8.40;37.80;;;;;;7363664;19;20014;-70
2022/09/29 02:39:30;;;;;;;11.07;5.90;;;8.30;37.30;;;;;;7365040;19;20065;-70
2022/09/29 02:42:08;;;;;;;14.00;6.63;;;8.40;37.20;;;;;;7364392;19;20014;-71
2022/09/29 02:44:52;;;;;;;9.45;5.72;;;8.50;36.70;;;;;;7365391;19;20015;-70
2022/09/29 02:47:54;;;;;;;10.52;6.43;;;8.50;36.00;;;;;;7379184;19;20470;-71
2022/09/29 02:50:42;;;;;;;11.27;6.00;;;8.50;35.30;;;;;;7363591;19;20014;-70
2022/09/29 02:53:22;;;;;;;11.15;6.70;;;8.50;34.90;;;;;;7386425;19;20019;-70
2022/09/29 02:56:01;;;;;;;15.20;6.65;;;8.50;35.00;;;;;;7363885;19;20596;-71
2022/09/29 02:58:39;;;;;;;12.75;6.50;;;8.50;35.10;;;;;;7362953;19;20416;-71
2022/09/29 03:01:16;;;;;;;9.90;6.20;;;8.50;35.70;;;;;;7363912;19;20022;-70
2022/09/29 03:03:46;;;;;;;10.07;6.20;;;8.50;35.00;;;;;;7364659;19;20031;-69
2022/09/29 03:06:21;;;;;;;8.57;5.75;;;8.50;35.10;;;;;;7362468;19;20034;-72
2022/09/29 03:08:51;;;;;;;8.25;5.72;;;8.50;35.20;;;;;;7364449;19;20010;-70
2022/09/29 03:11:21;;;;;;;6.85;5.57;;;8.50;34.90;;;;;;7385794;19;20054;-69
2022/09/29 03:13:51;;;;;;;9.30;5.70;;;8.50;34.80;;;;;;7363436;19;20015;-70
2022/09/29 03:16:20;;;;;;;7.65;5.32;;;8.50;34.10;;;;;;7365765;19;20010;-70
2022/09/29 03:18:50;;;;;;;9.38;5.90;;;8.50;34.30;;;;;;7364547;19;20515;-71
2022/09/29 03:21:23;;;;;;;10.25;6.55;;;8.50;34.40;;;;;;7363806;19;20580;-70
2022/09/29 03:23:52;;;;;;;11.27;5.57;;;8.50;33.80;;;;;;7394161;19;20038;-70
2022/09/29 03:26:26;;;;;;;9.10;5.67;;;8.50;33.40;;;;;;7388462;19;20021;-70
2022/09/29 03:28:56;;;;;;;9.15;5.43;;;8.50;32.70;;;;;;7391399;19;20250;-70
2022/09/29 03:31:26;;;;;;;7.38;4.95;;;8.50;32.60;;;;;;7390547;19;20014;-69
2022/09/29 03:33:55;;;;;;;10.07;6.22;;;8.50;32.50;;;;;;7391209;19;20021;-71
2022/09/29 03:36:29;;;;;;;13.23;5.32;;;8.50;33.50;;;;;;7389385;19;20025;-70
2022/09/29 03:38:59;;;;;;;6.38;5.20;;;8.40;33.90;;;;;;7390358;19;20086;-70
2022/09/29 03:41:29;;;;;;;8.45;5.15;;;8.40;34.60;;;;;;7389913;19;20014;-70
2022/09/29 03:43:58;;;;;;;6.40;4.88;;;8.30;35.10;;;;;;7390802;19;20018;-70
2022/09/29 03:46:28;;;;;;;6.07;4.60;;;8.20;35.20;;;;;;7386329;19;20047;-70
2022/09/29 03:48:58;;;;;;;7.20;4.43;;;8.20;36.90;;;;;;7353021;19;20030;-70
2022/09/29 03:51:30;;;;;;;6.75;4.30;;;8.10;37.50;;;;;;7384201;19;20025;-70
2022/09/29 03:54:00;;;;;;;7.30;4.63;;;8.10;38.20;;;;;;7386176;19;20491;-70
2022/09/29 03:56:30;;;;;;;8.23;4.70;;;8.00;38.40;;;;;;7359834;19;20014;-70
2022/09/29 03:58:59;;;;;;;8.00;5.25;;;8.00;38.60;;;;;;7362982;19;20017;-70
2022/09/29 04:01:29;;;;;;;8.00;4.90;;;8.00;39.50;;;;;;7362029;19;20514;-70
2022/09/29 04:03:59;;;;;;;7.68;5.50;;;7.90;40.40;;;;;;7362712;19;20056;-70
2022/09/29 04:06:32;;;;;;;9.32;5.60;;;7.80;40.40;;;;;;7380879;19;20385;-70
2022/09/29 04:09:01;;;;;;;7.43;5.18;;;7.80;40.80;;;;;;7362525;19;20407;-70
2022/09/29 04:11:31;;;;;;;7.82;5.07;;;7.70;41.50;;;;;;7361567;19;20054;-70
2022/09/29 04:14:01;;;;;;;9.80;5.88;;;7.70;41.60;;;;;;7362928;19;20479;-69
2022/09/29 04:16:31;;;;;;;7.35;5.45;;;7.60;42.50;;;;;;7363463;19;20592;-69
2022/09/29 04:19:01;;;;;;;10.02;5.22;;;7.60;43.30;;;;;;7363679;19;20027;-69
2022/09/29 04:21:35;;;;;;;9.10;5.70;;;7.50;44.00;;;;;;7385420;19;20027;-70
2022/09/29 04:24:04;;;;;;;8.02;5.50;;;7.40;44.20;;;;;;7362441;19;20518;-69
2022/09/29 04:26:34;;;;;;;9.75;6.25;;;7.40;45.10;;;;;;7357206;19;20049;-70
2022/09/29 04:29:04;;;;;;;9.18;5.90;;;7.40;45.40;;;;;;7362423;19;20018;-70
2022/09/29 04:31:34;;;;;;;9.70;5.75;;;7.40;45.80;;;;;;7361704;19;20018;-70
2022/09/29 04:34:04;;;;;;;8.57;6.05;;;7.30;46.10;;;;;;7362576;19;20038;-70
2022/09/29 04:36:37;;;;;;;11.75;7.22;;;7.30;46.30;;;;;;7381043;19;20018;-69
2022/09/29 04:39:07;;;;;;;11.02;7.03;;;7.30;46.60;;;;;;7361717;19;20007;-69
2022/09/29 04:41:38;;;;;;;8.55;5.97;;;7.30;46.80;;;;;;7360830;19;20014;-69
2022/09/29 04:44:08;;;;;;;9.63;6.78;;;7.20;46.70;;;;;;7361650;19;20021;-68
2022/09/29 04:46:38;;;;;;;10.02;6.15;;;7.20;47.20;;;;;;7358840;19;20857;-69
2022/09/29 04:49:08;;;;;;;7.95;6.28;;;7.20;47.30;;;;;;7361075;19;20493;-69
2022/09/29 04:51:40;;;;;;;11.43;6.40;;;7.20;47.50;;;;;;7387210;19;20014;-69
2022/09/29 04:54:10;;;;;;;11.45;6.38;;;7.20;47.60;;;;;;7388762;19;20758;-70
2022/09/29 04:56:40;;;;;;;9.50;5.95;;;7.20;47.90;;;;;;7386366;19;20038;-70
2022/09/29 04:59:11;;;;;;;9.88;6.18;;;7.20;47.90;;;;;;7388487;19;20035;-70
2022/09/29 05:01:41;;;;;;;10.40;6.25;;;7.10;48.60;;;;;;7386134;19;20022;-70
2022/09/29 05:04:12;;;;;;;9.30;6.35;;;7.10;48.00;;;;;;7387882;19;20070;-70
2022/09/29 05:06:44;;;;;;;8.70;5.80;;;7.20;48.20;;;;;;7385921;19;20110;-69
2022/09/29 05:09:15;;;;;;;11.52;7.35;;;7.20;48.30;;;;;;7387256;19;20506;-69
2022/09/29 05:11:45;;;;;;;9.10;6.25;;;7.30;48.40;;;;;;7387633;19;20014;-70
2022/09/29 05:14:15;;;;;;;10.02;6.43;;;7.30;48.30;;;;;;7386127;19;20037;-70
2022/09/29 05:16:44;;;;;;;10.05;6.60;;;7.30;48.20;;;;;;7389225;19;20046;-70
2022/09/29 05:19:14;;;;;;;13.32;5.85;;;7.30;48.20;;;;;;7359776;19;20006;-70
2022/09/29 05:21:48;;;;;;;10.75;6.45;;;7.30;48.20;;;;;;7385244;19;20018;-70
2022/09/29 05:24:18;;;;;;;9.38;6.07;;;7.40;48.20;;;;;;7360329;19;20074;-70
2022/09/29 05:26:48;;;;;;;8.88;5.60;;;7.40;48.10;;;;;;7379526;19;20026;-69
2022/09/29 05:29:18;;;;;;;12.82;6.50;;;7.40;48.20;;;;;;7359463;19;20017;-69
2022/09/29 05:31:48;;;;;;;11.75;5.97;;;7.50;48.30;;;;;;7359001;19;20070;-69
2022/09/29 05:34:18;;;;;;;8.07;5.63;;;7.60;47.20;;;;;;7359428;19;20018;-70
2022/09/29 05:36:50;;;;;;;10.57;6.10;;;7.60;46.30;;;;;;7359175;19;20042;-69
2022/09/29 05:39:20;;;;;;;10.15;6.35;;;7.60;45.60;;;;;;7366294;19;20066;-70
2022/09/29 05:41:51;;;;;;;7.85;5.05;;;7.50;44.60;;;;;;7387913;19;20411;-69
2022/09/29 05:44:26;;;;;;;11.50;5.40;;;7.60;44.40;;;;;;7366669;19;20090;-70
2022/09/29 05:46:56;;;;;;;8.65;5.10;;;7.60;43.80;;;;;;7363084;19;20525;-71
2022/09/29 05:49:26;;;;;;;10.30;6.25;;;7.60;43.00;;;;;;7363608;19;20010;-71
2022/09/29 05:51:58;;;;;;;9.18;5.93;;;7.60;42.00;;;;;;7366796;19;20042;-71
2022/09/29 05:54:28;;;;;;;8.02;5.30;;;7.60;41.90;;;;;;7366627;19;20505;-70
2022/09/29 05:56:58;;;;;;;8.77;5.47;;;7.60;42.00;;;;;;7363796;19;20346;-70
2022/09/29 05:59:28;;;;;;;10.38;6.20;;;7.60;41.60;;;;;;7387408;19;20014;-70
2022/09/29 06:01:58;;;;;;;12.38;6.00;;;7.70;41.50;;;;;;7365412;19;20745;-70
2022/09/29 06:04:28;;;;;;;9.55;5.70;;;7.70;40.50;;;;;;7365458;19;20022;-69
2022/09/29 06:07:00;;;;;;;11.93;6.35;;;7.70;41.10;;;;;;7363646;19;20011;-70
2022/09/29 06:09:30;;;;;;;10.55;6.43;;;7.90;40.80;;;;;;7365445;19;20603;-70
2022/09/29 06:12:00;;;;;;;12.85;7.40;;;7.80;40.30;;;;;;7364931;19;20014;-71
2022/09/29 06:14:30;;;;;;;16.52;7.93;;;7.90;40.60;;;;;;7387306;19;20042;-72
2022/09/29 06:17:00;;;;;;;10.02;7.28;;;8.00;39.30;;;;;;7365080;19;20011;-70
2022/09/29 06:19:29;;;;;;;11.57;6.97;;;8.00;38.20;;;;;;7366174;19;20018;-70
2022/09/29 06:22:02;;;;;;;12.35;7.13;;;8.20;38.30;;;;;;7393013;19;20051;-70
2022/09/29 06:24:31;;;;;;;10.57;7.13;;;8.30;37.40;;;;;;7392705;19;20022;-70
2022/09/29 06:27:01;;;;;;;13.45;7.43;;;8.30;36.20;;;;;;7389989;19;20038;-68
2022/09/29 06:29:31;;;;;;;10.27;6.68;;;8.40;35.10;;;;;;7391616;19;20114;-70
2022/09/29 06:32:01;;;;;;;10.88;7.13;;;8.40;35.10;;;;;;7392266;19;20029;-70
2022/09/29 06:34:30;;;;;;;12.48;6.82;;;8.40;34.20;;;;;;7391680;19;20332;-70
2022/09/29 06:39:45;;;;;;;14.88;7.47;;;8.70;33.30;;;;;;7392168;19;20498;-71
2022/09/29 06:42:15;;;;;;;9.75;7.28;;;8.70;30.70;;;;;;7392910;19;20014;-70
2022/09/29 06:44:44;;;;;;;13.98;6.90;;;8.80;30.40;;;;;;7392280;19;20011;-70
2022/09/29 06:47:14;;;;;;;11.80;6.70;;;8.90;29.00;;;;;;7389137;19;20022;-71
2022/09/29 06:49:44;;;;;;;12.52;7.05;;;8.80;28.50;;;;;;7387763;19;20042;-70
2022/09/29 06:52:30;;;;;;;12.55;6.97;;;8.80;28.00;;;;;;7391151;19;20019;-70
2022/09/29 06:55:00;;;;;;;10.05;6.47;;;8.90;28.30;;;;;;7391712;19;20596;-70
2022/09/29 06:57:30;;;;;;;9.13;6.03;;;8.90;27.80;;;;;;7388681;19;20673;-70
2022/09/29 07:00:00;;;;;;;7.82;5.22;;;8.90;27.60;;;;;;7389040;19;20074;-70
2022/09/29 07:02:29;;;;;;;9.70;5.40;;;8.80;25.90;;;;;;7390725;19;20014;-70
2022/09/29 07:04:59;;;;;;;10.80;5.97;;;9.00;26.90;;;;;;7390937;19;20020;-70
2022/09/29 07:07:32;;;;;;;8.25;4.68;;;9.10;25.00;;;;;;7388964;19;20031;-70
2022/09/29 07:10:02;;;;;;;5.60;4.18;;;9.20;23.90;;;;;;7390710;19;20475;-70
2022/09/29 07:12:31;;;;;;;9.93;4.72;;;9.40;21.80;;;;;;7390222;19;20015;-70
2022/09/29 07:15:01;;;;;;;8.23;4.70;;;9.50;20.30;;;;;;7390341;19;20043;-70
2022/09/29 07:17:31;;;;;;;9.90;5.68;;;9.40;19.70;;;;;;7390683;19;20011;-70
2022/09/29 07:20:01;;;;;;;6.10;4.75;;;9.50;20.10;;;;;;7389589;19;20014;-69
2022/09/29 07:22:33;;;;;;;8.35;5.10;;;9.60;18.20;;;;;;7390678;19;20030;-69
2022/09/29 07:25:03;;;;;;;5.85;4.90;;;9.50;18.30;;;;;;7389578;19;20521;-70
2022/09/29 07:27:34;;;;;;;9.68;5.07;;;9.60;16.40;;;;;;7384147;19;20019;-70
2022/09/29 07:30:04;;;;;;;9.55;5.70;;;9.40;18.00;;;;;;7386494;19;20422;-71
2022/09/29 07:32:34;;;;;;;9.48;5.22;;;9.50;19.90;;;;;;7390196;19;20011;-70
2022/09/29 07:35:04;;;;;;;14.73;5.43;;;9.70;17.70;;;;;;7389751;19;20023;-69
2022/09/29 07:37:36;;;;;;;8.50;5.32;;;9.80;17.60;;;;;;7386833;19;20015;-71
2022/09/29 07:40:07;;;;;;;10.90;6.00;;;9.90;17.40;;;;;;7388581;19;20022;-70
2022/09/29 07:42:37;;;;;;;7.95;5.90;;;9.90;17.30;;;;;;7390162;19;20018;-71
2022/09/29 07:45:09;;;;;;;7.45;5.68;;;10.00;15.00;;;;;;7389597;19;20504;-70
2022/09/29 07:47:38;;;;;;;6.93;5.20;;;9.80;14.30;;;;;;7384744;19;20471;-70
2022/09/29 07:50:09;;;;;;;10.05;5.75;;;9.80;16.50;;;;;;7387810;19;20014;-69
2022/09/29 07:52:41;;;;;;;8.75;5.90;;;9.90;17.80;;;;;;7387217;19;20457;-69
2022/09/29 07:55:11;;;;;;;13.35;6.63;;;10.00;15.00;;;;;;7388937;19;20014;-70
2022/09/29 07:57:41;;;;;;;7.55;5.63;;;10.10;15.10;;;;;;7377735;19;20018;-70
2022/09/29 08:00:12;;;;;;;7.40;5.78;;;10.10;13.20;;;;;;7392395;19;20003;-69
2022/09/29 08:02:42;;;;;;;8.85;6.35;;;10.10;14.00;;;;;;7391899;19;20015;-71
2022/09/29 08:05:12;;;;;;;6.47;5.35;;;10.30;12.40;;;;;;7392631;19;20042;-70
2022/09/29 08:07:44;;;;;;;9.88;5.88;;;10.10;13.70;;;;;;7387606;19;20037;-70
2022/09/29 08:10:14;;;;;;;9.57;7.32;;;10.30;11.90;;;;;;7390278;19;20018;-71
2022/09/29 08:12:46;;;;;;;11.35;8.50;;;10.70;11.00;;;;;;7388579;19;20502;-69
2022/09/29 08:15:16;;;;;;;11.27;8.15;;;10.80;8.30;;;;;;7390934;19;20014;-70
2022/09/29 08:17:46;;;;;;;9.90;5.95;;;10.70;8.80;;;;;;7387768;19;20482;-70
2022/09/29 08:20:16;;;;;;;10.25;6.00;;;10.80;8.40;;;;;;7391149;19;20006;-70
2022/09/29 08:22:49;;;;;;;10.70;5.85;;;10.90;7.30;;;;;;7391843;19;20014;-70
2022/09/29 08:25:20;;;;;;;9.63;5.30;;;10.80;7.30;;;;;;7391948;19;20010;-69
2022/09/29 08:27:49;;;;;;;7.18;4.93;;;11.00;7.00;;;;;;7384880;19;20018;-70
2022/09/29 08:30:24;;;;;;;6.60;4.82;;;10.80;7.10;;;;;;7390969;19;20533;-70
2022/09/29 08:32:54;;;;;;;8.13;5.00;;;10.70;7.40;;;;;;7391279;19;20031;-70
2022/09/29 08:35:24;;;;;;;7.18;4.82;;;11.10;7.10;;;;;;7390192;19;20063;-71
2022/09/29 08:37:58;;;;;;;7.78;4.47;;;10.90;4.70;;;;;;7388050;19;20018;-72
2022/09/29 08:40:30;;;;;;;7.03;5.18;;;11.10;6.10;;;;;;7379148;19;20027;-68
2022/09/29 08:43:06;;;;;;;6.63;4.40;;;11.40;2.70;;;;;;7388534;19;20003;-69
2022/09/29 08:45:42;;;;;;;9.63;4.82;;;11.50;2.50;;;;;;7386554;19;20018;-67
2022/09/29 08:48:29;;;;;;;6.88;4.75;;;11.90;1.70;;;;;;7385755;19;20011;-69
2022/09/29 08:51:02;;;;;;;8.98;4.88;;;11.60;1.00;;;;;;7384211;19;20700;-70
2022/09/29 08:53:39;;;;;;;9.38;4.57;;;12.10;1.00;;;;;;7387347;19;20021;-69
2022/09/29 08:56:17;;;;;;;6.15;4.22;;;12.10;1.00;;;;;;7382825;19;20018;-69
2022/09/29 08:58:47;;;;;;;8.27;4.15;;;12.00;1.00;;;;;;7384236;19;20014;-68
2022/09/29 09:01:25;;;;;;;7.13;3.58;;;12.00;1.00;;;;;;7381084;19;20090;-69
2022/09/29 09:04:19;;;;;;;6.53;3.70;;;12.20;1.00;;;;;;7385587;19;20015;-69
2022/09/29 09:07:03;;;;;;;6.60;3.75;;;12.30;1.00;;;;;;7382519;19;20056;-68
2022/09/29 09:09:50;;;;;;;8.10;4.20;;;12.30;1.00;;;;;;7382676;19;20489;-69
2022/09/29 09:12:44;;;;;;;6.45;3.95;;;12.10;1.00;;;;;;7384826;19;20012;-69
2022/09/29 09:15:38;;;;;;;6.75;3.95;;;12.30;1.00;;;;;;7394256;19;20010;-68
2022/09/29 09:18:34;;;;;;;6.57;4.10;;;12.60;1.00;;;;;;7391315;19;20014;-69
2022/09/29 09:21:09;;;;;;;6.55;3.40;;;12.60;1.00;;;;;;7386495;19;20010;-69
2022/09/29 09:23:52;;;;;;;7.65;3.92;;;12.30;1.00;;;;;;7394360;19;20013;-69
2022/09/29 09:26:38;;;;;;;7.97;3.60;;;12.50;1.00;;;;;;7389738;19;20022;-69
2022/09/29 09:29:15;;;;;;;4.43;2.85;;;12.90;1.00;;;;;;7392838;19;20458;-70
2022/09/29 09:31:50;;;;;;;6.22;3.42;;;13.00;1.00;;;;;;7333182;19;20377;-69
2022/09/29 09:34:25;;;;;;;2.75;2.28;;;13.30;1.00;;;;;;7368008;19;20505;-68
2022/09/29 09:37:15;;;;;;;4.85;2.53;;;13.10;1.00;;;;;;7367221;19;20598;-69
2022/09/29 09:39:52;;;;;;;5.75;3.00;;;12.70;1.00;;;;;;7372096;19;20018;-70
2022/09/29 09:42:28;;;;;;;6.00;2.67;;;12.70;1.00;;;;;;7375273;19;20517;-70
2022/09/29 09:45:03;;;;;;;5.88;3.15;;;12.60;1.00;;;;;;7356818;19;20502;-68
2022/09/29 09:47:39;;;;;;;6.47;3.05;;;12.90;1.00;;;;;;7356707;19;20034;-69
2022/09/29 09:50:16;;;;;;;4.68;3.08;;;13.00;1.00;;;;;;7357026;19;20078;-69
2022/09/29 09:52:49;;;;;;;7.82;3.22;;;12.80;1.00;;;;;;7359338;19;20079;-69
2022/09/29 09:55:20;;;;;;;6.07;3.38;;;12.90;1.00;;;;;;7357704;19;20018;-70
2022/09/29 09:58:06;;;;;;;5.72;3.63;;;13.30;1.00;;;;;;7354897;19;20022;-70
2022/09/29 10:00:40;;;;;;;5.22;3.30;;;13.00;1.00;;;;;;7373873;19;20115;-68
2022/09/29 10:03:13;;;;;;;6.47;3.60;;;12.80;1.00;;;;;;7358259;19;20014;-69
2022/09/29 10:05:45;;;;;;;5.75;3.47;;;13.10;1.00;;;;;;7355430;19;20037;-69
2022/09/29 10:08:21;;;;;;;7.63;3.65;;;13.10;1.00;;;;;;7355785;19;20101;-69
2022/09/29 10:10:52;;;;;;;3.78;2.30;;;13.30;1.00;;;;;;7348609;19;20054;-70
2022/09/29 10:13:32;;;;;;;5.45;2.58;;;13.40;1.00;;;;;;7358439;19;20018;-70
2022/09/29 10:16:13;;;;;;;11.35;4.55;;;13.60;1.00;;;;;;7355147;19;20030;-69
2022/09/29 10:18:45;;;;;;;7.07;2.85;;;13.70;1.00;;;;;;7376836;19;20046;-69
2022/09/29 10:21:24;;;;;;;5.28;3.17;;;13.90;1.00;;;;;;7351476;19;20048;-69
2022/09/29 10:23:55;;;;;;;4.20;3.20;;;13.80;1.00;;;;;;7355559;19;20038;-69
2022/09/29 10:26:28;;;;;;;6.88;4.00;;;13.90;1.00;;;;;;7354400;19;20022;-69
2022/09/29 10:29:03;;;;;;;5.63;3.90;;;13.90;1.00;;;;;;7358786;19;20121;-69
2022/09/29 10:31:35;;;;;;;6.50;3.72;;;13.80;1.00;;;;;;7351199;19;20010;-69
2022/09/29 10:34:17;;;;;;;5.80;3.47;;;13.80;1.00;;;;;;7380610;19;20010;-69
2022/09/29 10:36:53;;;;;;;8.55;4.30;;;13.90;1.00;;;;;;7378106;19;20018;-69
2022/09/29 10:39:35;;;;;;;5.85;3.13;;;13.80;1.00;;;;;;7381382;19;20003;-70
2022/09/29 10:42:04;;;;;;;5.95;3.60;;;13.80;1.00;;;;;;7377016;19;20026;-69
2022/09/29 10:44:41;;;;;;;3.35;2.85;;;13.40;1.00;;;;;;7382172;19;20038;-70
2022/09/29 10:47:16;;;;;;;4.30;2.85;;;13.40;1.00;;;;;;7376688;19;20094;-68
2022/09/29 10:49:46;;;;;;;7.00;3.38;;;13.50;1.00;;;;;;7379183;19;20467;-67
2022/09/29 10:52:25;;;;;;;6.13;3.08;;;13.90;1.00;;;;;;7373843;19;20426;-68
2022/09/29 10:54:59;;;;;;;6.25;2.97;;;13.90;1.00;;;;;;7380144;19;20046;-69
2022/09/29 10:57:31;;;;;;;7.00;2.92;;;13.80;1.00;;;;;;7374960;19;20025;-68
2022/09/29 11:00:05;;;;;;;8.00;3.42;;;14.00;1.00;;;;;;7378763;19;20007;-68
2022/09/29 11:02:39;;;;;;;6.32;3.33;;;14.30;1.00;;;;;;7374561;19;20019;-68
2022/09/29 11:05:19;;;;;;;8.43;3.13;;;14.50;1.00;;;;;;7377732;19;20034;-68
2022/09/29 11:07:52;;;;;;;5.18;2.97;;;13.80;1.00;;;;;;7372408;19;20408;-68
2022/09/29 11:10:34;;;;;;;7.10;2.75;;;14.00;1.00;;;;;;7369841;19;20021;-67
2022/09/29 11:13:40;;;;;;;4.03;2.70;;;14.40;1.00;;;;;;7379368;19;20019;-68
2022/09/29 11:16:20;;;;;;;5.07;2.90;;;14.40;1.00;;;;;;7376858;19;20034;-68
2022/09/29 11:18:53;;;;;;;6.40;3.30;;;14.80;1.00;;;;;;7379739;19;20047;-68
2022/09/29 11:21:59;;;;;;;5.82;3.30;;;14.60;1.00;;;;;;7374003;19;20014;-68
2022/09/29 11:24:57;;;;;;;4.28;2.78;;;14.80;1.00;;;;;;7375487;19;20376;-68
2022/09/29 11:27:39;;;;;;;5.40;2.75;;;14.90;1.00;;;;;;7377101;19;20018;-69
2022/09/29 11:30:13;;;;;;;3.90;2.40;;;14.60;1.00;;;;;;7377998;19;20013;-69
2022/09/29 11:33:08;;;;;;;4.60;2.88;;;14.30;1.00;;;;;;7377048;19;20046;-69
2022/09/29 11:35:52;;;;;;;4.40;2.50;;;14.20;1.00;;;;;;7377118;19;20017;-69
2022/09/29 11:38:38;;;;;;;4.97;2.30;;;14.40;1.00;;;;;;7378544;19;20119;-69
2022/09/29 11:41:24;;;;;;;3.45;2.15;;;14.40;1.00;;;;;;7374897;19;20010;-68
2022/09/29 11:43:57;;;;;;;3.67;2.00;;;14.20;1.00;;;;;;7378356;19;20101;-71
2022/09/29 11:46:47;;;;;;;7.63;2.90;;;14.40;1.00;;;;;;7374190;19;20029;-71
2022/09/29 11:49:42;;;;;;;5.45;2.55;;;14.60;1.00;;;;;;7377843;19;20038;-72
2022/09/29 11:52:36;;;;;;;5.10;2.60;;;14.60;1.00;;;;;;7371201;19;20624;-71
2022/09/29 11:55:27;;;;;;;5.20;2.83;;;14.60;1.00;;;;;;7377012;19;20018;-71
2022/09/29 11:58:06;;;;;;;6.55;2.22;;;14.50;1.00;;;;;;7373478;19;20042;-70
2022/09/29 12:00:49;;;;;;;5.10;2.22;;;14.60;1.00;;;;;;7370462;19;20010;-71
2022/09/29 12:03:31;;;;;;;4.85;2.33;;;14.40;1.00;;;;;;7379064;19;20015;-71
2022/09/29 12:06:18;;;;;;;3.13;2.10;;;14.50;1.00;;;;;;7373303;19;20046;-70
2022/09/29 12:08:59;;;;;;;3.80;2.22;;;14.50;1.00;;;;;;7377878;19;20345;-70
2022/09/29 12:11:40;;;;;;;2.25;1.85;;;14.40;1.00;;;;;;7371261;19;20010;-70
2022/09/29 12:14:37;;;;;;;4.20;1.75;;;14.30;1.00;;;;;;7348767;19;20010;-72
2022/09/29 12:17:13;;;;;;;3.83;2.05;;;14.30;1.00;;;;;;7348842;19;20039;-70
2022/09/29 12:19:46;;;;;;;4.93;2.25;;;14.30;1.00;;;;;;7352740;19;20021;-71
2022/09/29 12:22:21;;;;;;;3.47;2.13;;;14.20;1.00;;;;;;7347138;19;20043;-72
2022/09/29 12:24:54;;;;;;;5.72;2.10;;;14.40;1.00;;;;;;7375936;19;20018;-70
2022/09/29 12:27:28;;;;;;;4.10;2.27;;;14.40;1.00;;;;;;7350496;19;20533;-72
2022/09/29 12:30:03;;;;;;;6.32;2.28;;;14.50;1.00;;;;;;7352713;19;20015;-70
2022/09/29 12:32:38;;;;;;;3.60;2.22;;;14.40;1.00;;;;;;7350603;19;20561;-71
2022/09/29 12:35:16;;;;;;;4.97;2.35;;;14.30;1.00;;;;;;7354251;19;20014;-70
2022/09/29 12:37:55;;;;;;;2.45;2.00;;;14.30;1.00;;;;;;7352894;19;20490;-71
2022/09/29 12:40:31;;;;;;;3.22;2.20;;;14.40;1.00;;;;;;7350375;19;20018;-70
2022/09/29 12:43:07;;;;;;;7.35;2.30;;;14.50;1.00;;;;;;7366565;19;20015;-71
2022/09/29 12:45:45;;;;;;;4.70;2.30;;;14.50;1.00;;;;;;7373693;19;20019;-72
2022/09/29 12:48:27;;;;;;;4.70;2.15;;;14.40;1.00;;;;;;7351076;19;20432;-70
2022/09/29 12:51:03;;;;;;;6.32;2.03;;;14.30;1.00;;;;;;7346237;19;20030;-71
2022/09/29 12:53:40;;;;;;;3.33;1.70;;;14.50;1.00;;;;;;7354252;19;20077;-71
2022/09/29 12:56:15;;;;;;;3.38;2.47;;;14.30;1.00;;;;;;7350068;19;20042;-70
2022/09/29 12:58:52;;;;;;;3.67;2.47;;;14.60;1.00;;;;;;7351740;19;20173;-71
2022/09/29 13:01:25;;;;;;;2.78;1.88;;;14.50;1.00;;;;;;7345983;19;20007;-70
2022/09/29 13:04:23;;;;;;;4.17;1.80;;;14.60;1.00;;;;;;7373859;19;20022;-70
2022/09/29 13:07:29;;;;;;;5.25;1.85;;;14.70;1.00;;;;;;7347443;19;21668;-70
2022/09/29 13:10:14;;;;;;;;;;;14.50;1.00;;;;;;7251224;19;2004316;-73
2022/09/29 13:13:01;;;;;;;5.43;2.05;;;14.30;1.00;;;;;;7373410;19;19914;-72
2022/09/29 13:15:59;;;;;;;6.03;2.13;;;14.30;1.00;;;;;;7352695;19;20470;-70
2022/09/29 13:19:00;;;;;;;4.05;2.08;;;14.60;1.00;;;;;;7352990;19;20018;-72
2022/09/29 13:22:00;;;;;;;5.05;2.03;;;14.20;1.00;;;;;;7345660;19;20599;-70
2022/09/29 13:24:44;;;;;;;5.35;1.88;;;14.10;1.00;;;;;;7352689;19;20056;-71
2022/09/29 13:27:34;;;;;;;3.72;1.98;;;14.20;1.00;;;;;;7349009;19;20010;-71
2022/09/29 13:30:13;;;;;;;3.53;1.85;;;14.30;1.00;;;;;;7349698;19;20010;-71
2022/09/29 13:32:45;;;;;;;2.95;2.00;;;14.30;1.00;;;;;;7348537;19;20006;-70
2022/09/29 13:35:20;;;;;;;2.65;1.58;;;14.40;1.00;;;;;;7352590;19;20010;-71
2022/09/29 13:37:54;;;;;;;6.68;2.22;;;14.50;1.00;;;;;;7348993;19;20343;-70
2022/09/29 13:40:27;;;;;;;5.60;2.63;;;14.40;1.00;;;;;;7350204;19;20086;-72